sensor_id;sensor_type;location;lat;lon;timestamp;P1;durP1;ratioP1;P2;durP2;ratioP2
8260;SDS011;64115;50.170;8.242;2023-04-08T00:01:05;16.40;;;10.93;;
8260;SDS011;64115;50.170;8.242;2023-04-08T00:03:32;16.33;;;10.87;;
8260;SDS011;64115;50.170;8.242;2023-04-08T00:06:00;16.03;;;11.60;;
8260;SDS011;64115;50.170;8.242;2023-04-08T00:08:28;17.37;;;12.30;;
8260;SDS011;64115;50.170;8.242;2023-04-08T00:10:55;16.23;;;11.53;;
8260;SDS011;64115;50.170;8.242;2023-04-08T00:13:22;15.53;;;11.50;;
8260;SDS011;64115;50.170;8.242;2023-04-08T00:15:49;18.10;;;12.37;;
8260;SDS011;64115;50.170;8.242;2023-04-08T00:18:16;17.40;;;10.73;;
8260;SDS011;64115;50.170;8.242;2023-04-08T00:20:43;18.00;;;11.43;;
8260;SDS011;64115;50.170;8.242;2023-04-08T00:23:12;18.13;;;12.23;;
8260;SDS011;64115;50.170;8.242;2023-04-08T00:25:39;15.90;;;10.67;;
8260;SDS011;64115;50.170;8.242;2023-04-08T00:28:06;18.57;;;11.33;;
8260;SDS011;64115;50.170;8.242;2023-04-08T00:30:33;17.83;;;11.27;;
8260;SDS011;64115;50.170;8.242;2023-04-08T00:33:01;18.30;;;11.27;;
8260;SDS011;64115;50.170;8.242;2023-04-08T00:35:28;18.17;;;11.50;;
8260;SDS011;64115;50.170;8.242;2023-04-08T00:37:55;17.37;;;10.73;;
8260;SDS011;64115;50.170;8.242;2023-04-08T00:40:24;15.70;;;11.00;;
8260;SDS011;64115;50.170;8.242;2023-04-08T00:42:51;17.57;;;11.30;;
8260;SDS011;64115;50.170;8.242;2023-04-08T00:45:18;18.73;;;11.77;;
8260;SDS011;64115;50.170;8.242;2023-04-08T00:47:45;17.23;;;11.43;;
8260;SDS011;64115;50.170;8.242;2023-04-08T00:50:16;20.80;;;11.50;;
8260;SDS011;64115;50.170;8.242;2023-04-08T00:52:44;16.47;;;11.27;;
8260;SDS011;64115;50.170;8.242;2023-04-08T00:55:11;19.30;;;12.37;;
8260;SDS011;64115;50.170;8.242;2023-04-08T00:57:40;23.10;;;12.40;;
8260;SDS011;64115;50.170;8.242;2023-04-08T01:00:08;18.83;;;11.63;;
8260;SDS011;64115;50.170;8.242;2023-04-08T01:02:38;21.73;;;12.20;;
8260;SDS011;64115;50.170;8.242;2023-04-08T01:05:12;18.97;;;12.40;;
8260;SDS011;64115;50.170;8.242;2023-04-08T01:07:43;21.80;;;12.80;;
8260;SDS011;64115;50.170;8.242;2023-04-08T01:10:14;21.47;;;12.87;;
8260;SDS011;64115;50.170;8.242;2023-04-08T01:12:47;22.77;;;12.73;;
8260;SDS011;64115;50.170;8.242;2023-04-08T01:15:17;19.03;;;12.37;;
8260;SDS011;64115;50.170;8.242;2023-04-08T01:17:44;23.47;;;12.57;;
8260;SDS011;64115;50.170;8.242;2023-04-08T01:20:13;20.63;;;12.60;;
8260;SDS011;64115;50.170;8.242;2023-04-08T01:22:45;23.30;;;12.80;;
8260;SDS011;64115;50.170;8.242;2023-04-08T01:25:30;18.90;;;12.07;;
8260;SDS011;64115;50.170;8.242;2023-04-08T01:28:02;19.90;;;12.13;;
8260;SDS011;64115;50.170;8.242;2023-04-08T01:30:30;21.27;;;12.90;;
8260;SDS011;64115;50.170;8.242;2023-04-08T01:32:59;22.10;;;13.60;;
8260;SDS011;64115;50.170;8.242;2023-04-08T01:35:29;22.67;;;13.07;;
8260;SDS011;64115;50.170;8.242;2023-04-08T01:37:57;24.17;;;12.97;;
8260;SDS011;64115;50.170;8.242;2023-04-08T01:40:25;22.60;;;13.37;;
8260;SDS011;64115;50.170;8.242;2023-04-08T01:42:53;17.20;;;12.13;;
8260;SDS011;64115;50.170;8.242;2023-04-08T01:45:22;20.33;;;12.53;;
8260;SDS011;64115;50.170;8.242;2023-04-08T01:47:51;21.00;;;12.77;;
8260;SDS011;64115;50.170;8.242;2023-04-08T01:50:19;20.03;;;12.87;;
8260;SDS011;64115;50.170;8.242;2023-04-08T01:52:48;18.83;;;12.43;;
8260;SDS011;64115;50.170;8.242;2023-04-08T01:55:17;22.17;;;12.90;;
8260;SDS011;64115;50.170;8.242;2023-04-08T01:57:46;18.03;;;12.37;;
8260;SDS011;64115;50.170;8.242;2023-04-08T02:00:17;17.77;;;12.07;;
8260;SDS011;64115;50.170;8.242;2023-04-08T02:02:47;17.10;;;12.27;;
8260;SDS011;64115;50.170;8.242;2023-04-08T02:05:16;15.73;;;11.60;;
8260;SDS011;64115;50.170;8.242;2023-04-08T02:07:43;17.23;;;11.63;;
8260;SDS011;64115;50.170;8.242;2023-04-08T02:10:10;18.07;;;11.97;;
8260;SDS011;64115;50.170;8.242;2023-04-08T02:12:38;16.00;;;11.80;;
8260;SDS011;64115;50.170;8.242;2023-04-08T02:15:05;19.27;;;12.53;;
8260;SDS011;64115;50.170;8.242;2023-04-08T02:17:35;18.30;;;12.33;;
8260;SDS011;64115;50.170;8.242;2023-04-08T02:20:09;19.00;;;12.53;;
8260;SDS011;64115;50.170;8.242;2023-04-08T02:22:42;19.23;;;12.60;;
8260;SDS011;64115;50.170;8.242;2023-04-08T02:25:14;16.90;;;12.40;;
8260;SDS011;64115;50.170;8.242;2023-04-08T02:27:43;21.57;;;12.83;;
8260;SDS011;64115;50.170;8.242;2023-04-08T02:30:12;18.57;;;13.00;;
8260;SDS011;64115;50.170;8.242;2023-04-08T02:32:41;21.57;;;12.60;;
8260;SDS011;64115;50.170;8.242;2023-04-08T02:35:12;19.33;;;13.37;;
8260;SDS011;64115;50.170;8.242;2023-04-08T02:37:41;18.30;;;12.70;;
8260;SDS011;64115;50.170;8.242;2023-04-08T02:40:24;20.70;;;13.50;;
8260;SDS011;64115;50.170;8.242;2023-04-08T02:42:52;19.80;;;13.57;;
8260;SDS011;64115;50.170;8.242;2023-04-08T02:45:19;21.40;;;13.80;;
8260;SDS011;64115;50.170;8.242;2023-04-08T02:47:47;20.17;;;13.40;;
8260;SDS011;64115;50.170;8.242;2023-04-08T02:50:15;20.47;;;13.40;;
8260;SDS011;64115;50.170;8.242;2023-04-08T02:52:42;19.57;;;12.67;;
8260;SDS011;64115;50.170;8.242;2023-04-08T02:55:09;18.27;;;13.37;;
8260;SDS011;64115;50.170;8.242;2023-04-08T02:57:37;20.30;;;14.47;;
8260;SDS011;64115;50.170;8.242;2023-04-08T03:00:05;21.33;;;13.67;;
8260;SDS011;64115;50.170;8.242;2023-04-08T03:02:33;21.80;;;14.27;;
8260;SDS011;64115;50.170;8.242;2023-04-08T03:05:01;21.53;;;14.03;;
8260;SDS011;64115;50.170;8.242;2023-04-08T03:07:30;20.57;;;14.13;;
8260;SDS011;64115;50.170;8.242;2023-04-08T03:09:58;20.00;;;13.60;;
8260;SDS011;64115;50.170;8.242;2023-04-08T03:12:25;17.07;;;13.27;;
8260;SDS011;64115;50.170;8.242;2023-04-08T03:14:52;21.20;;;14.30;;
8260;SDS011;64115;50.170;8.242;2023-04-08T03:17:20;17.13;;;13.13;;
8260;SDS011;64115;50.170;8.242;2023-04-08T03:19:47;19.27;;;13.73;;
8260;SDS011;64115;50.170;8.242;2023-04-08T03:22:14;17.23;;;13.13;;
8260;SDS011;64115;50.170;8.242;2023-04-08T03:24:42;20.07;;;13.43;;
8260;SDS011;64115;50.170;8.242;2023-04-08T03:27:10;19.03;;;13.90;;
8260;SDS011;64115;50.170;8.242;2023-04-08T03:29:38;17.67;;;13.90;;
8260;SDS011;64115;50.170;8.242;2023-04-08T03:32:05;18.53;;;13.93;;
8260;SDS011;64115;50.170;8.242;2023-04-08T03:34:32;18.53;;;13.80;;
8260;SDS011;64115;50.170;8.242;2023-04-08T03:36:59;17.97;;;13.60;;
8260;SDS011;64115;50.170;8.242;2023-04-08T03:39:26;20.27;;;13.77;;
8260;SDS011;64115;50.170;8.242;2023-04-08T03:41:55;18.53;;;13.47;;
8260;SDS011;64115;50.170;8.242;2023-04-08T03:44:24;16.47;;;13.27;;
8260;SDS011;64115;50.170;8.242;2023-04-08T03:46:51;19.23;;;13.80;;
8260;SDS011;64115;50.170;8.242;2023-04-08T03:49:19;17.87;;;13.80;;
8260;SDS011;64115;50.170;8.242;2023-04-08T03:51:46;19.03;;;13.57;;
8260;SDS011;64115;50.170;8.242;2023-04-08T03:54:13;16.90;;;13.67;;
8260;SDS011;64115;50.170;8.242;2023-04-08T03:56:40;17.50;;;13.60;;
8260;SDS011;64115;50.170;8.242;2023-04-08T03:59:08;16.67;;;13.20;;
8260;SDS011;64115;50.170;8.242;2023-04-08T04:01:35;17.80;;;13.23;;
8260;SDS011;64115;50.170;8.242;2023-04-08T04:04:02;15.93;;;12.53;;
8260;SDS011;64115;50.170;8.242;2023-04-08T04:06:29;18.30;;;12.57;;
8260;SDS011;64115;50.170;8.242;2023-04-08T04:08:56;18.13;;;13.57;;
8260;SDS011;64115;50.170;8.242;2023-04-08T04:11:23;18.93;;;13.40;;
8260;SDS011;64115;50.170;8.242;2023-04-08T04:13:51;16.23;;;12.90;;
8260;SDS011;64115;50.170;8.242;2023-04-08T04:16:19;16.80;;;13.40;;
8260;SDS011;64115;50.170;8.242;2023-04-08T04:18:46;19.13;;;13.97;;
8260;SDS011;64115;50.170;8.242;2023-04-08T04:21:13;16.97;;;13.00;;
8260;SDS011;64115;50.170;8.242;2023-04-08T04:23:40;17.53;;;13.50;;
8260;SDS011;64115;50.170;8.242;2023-04-08T04:26:07;17.17;;;13.97;;
8260;SDS011;64115;50.170;8.242;2023-04-08T04:28:35;18.90;;;13.87;;
8260;SDS011;64115;50.170;8.242;2023-04-08T04:31:02;19.87;;;14.63;;
8260;SDS011;64115;50.170;8.242;2023-04-08T04:33:30;17.93;;;14.33;;
8260;SDS011;64115;50.170;8.242;2023-04-08T04:35:58;20.83;;;14.70;;
8260;SDS011;64115;50.170;8.242;2023-04-08T04:38:25;22.50;;;14.93;;
8260;SDS011;64115;50.170;8.242;2023-04-08T04:40:52;17.83;;;14.40;;
8260;SDS011;64115;50.170;8.242;2023-04-08T04:43:19;18.70;;;14.17;;
8260;SDS011;64115;50.170;8.242;2023-04-08T04:45:46;19.43;;;14.90;;
8260;SDS011;64115;50.170;8.242;2023-04-08T04:48:13;17.27;;;14.30;;
8260;SDS011;64115;50.170;8.242;2023-04-08T04:50:41;20.57;;;15.10;;
8260;SDS011;64115;50.170;8.242;2023-04-08T04:53:08;19.90;;;14.40;;
8260;SDS011;64115;50.170;8.242;2023-04-08T04:55:35;21.63;;;16.10;;
8260;SDS011;64115;50.170;8.242;2023-04-08T04:58:02;25.77;;;16.10;;
8260;SDS011;64115;50.170;8.242;2023-04-08T05:00:29;28.40;;;15.57;;
8260;SDS011;64115;50.170;8.242;2023-04-08T05:02:57;27.67;;;16.97;;
8260;SDS011;64115;50.170;8.242;2023-04-08T05:05:24;19.67;;;16.10;;
8260;SDS011;64115;50.170;8.242;2023-04-08T05:07:52;20.97;;;15.57;;
8260;SDS011;64115;50.170;8.242;2023-04-08T05:10:19;24.67;;;15.53;;
8260;SDS011;64115;50.170;8.242;2023-04-08T05:12:46;22.53;;;15.93;;
8260;SDS011;64115;50.170;8.242;2023-04-08T05:15:13;23.03;;;16.50;;
8260;SDS011;64115;50.170;8.242;2023-04-08T05:17:40;22.23;;;16.00;;
8260;SDS011;64115;50.170;8.242;2023-04-08T05:20:07;20.53;;;15.53;;
8260;SDS011;64115;50.170;8.242;2023-04-08T05:22:35;29.63;;;15.23;;
8260;SDS011;64115;50.170;8.242;2023-04-08T05:25:03;25.20;;;16.20;;
8260;SDS011;64115;50.170;8.242;2023-04-08T05:27:31;24.27;;;15.83;;
8260;SDS011;64115;50.170;8.242;2023-04-08T05:29:58;25.63;;;16.00;;
8260;SDS011;64115;50.170;8.242;2023-04-08T05:32:25;49.13;;;16.30;;
8260;SDS011;64115;50.170;8.242;2023-04-08T05:34:53;45.97;;;17.00;;
8260;SDS011;64115;50.170;8.242;2023-04-08T05:37:20;23.90;;;15.60;;
8260;SDS011;64115;50.170;8.242;2023-04-08T05:39:47;22.40;;;16.20;;
8260;SDS011;64115;50.170;8.242;2023-04-08T05:42:16;25.40;;;16.70;;
8260;SDS011;64115;50.170;8.242;2023-04-08T05:44:43;22.33;;;16.53;;
8260;SDS011;64115;50.170;8.242;2023-04-08T05:47:10;23.67;;;16.77;;
8260;SDS011;64115;50.170;8.242;2023-04-08T05:49:38;26.07;;;17.53;;
8260;SDS011;64115;50.170;8.242;2023-04-08T05:52:05;24.20;;;17.37;;
8260;SDS011;64115;50.170;8.242;2023-04-08T05:54:32;25.40;;;16.97;;
8260;SDS011;64115;50.170;8.242;2023-04-08T05:56:59;21.10;;;16.23;;
8260;SDS011;64115;50.170;8.242;2023-04-08T05:59:28;21.40;;;15.47;;
8260;SDS011;64115;50.170;8.242;2023-04-08T06:01:55;23.17;;;17.07;;
8260;SDS011;64115;50.170;8.242;2023-04-08T06:04:22;24.53;;;17.87;;
8260;SDS011;64115;50.170;8.242;2023-04-08T06:06:49;23.07;;;16.67;;
8260;SDS011;64115;50.170;8.242;2023-04-08T06:09:16;24.63;;;17.67;;
8260;SDS011;64115;50.170;8.242;2023-04-08T06:11:43;24.37;;;17.53;;
8260;SDS011;64115;50.170;8.242;2023-04-08T06:14:13;24.37;;;17.80;;
8260;SDS011;64115;50.170;8.242;2023-04-08T06:16:42;27.90;;;18.57;;
8260;SDS011;64115;50.170;8.242;2023-04-08T06:19:08;25.33;;;17.37;;
8260;SDS011;64115;50.170;8.242;2023-04-08T06:21:35;25.50;;;18.37;;
8260;SDS011;64115;50.170;8.242;2023-04-08T06:24:02;24.53;;;17.33;;
8260;SDS011;64115;50.170;8.242;2023-04-08T06:26:29;23.73;;;17.87;;
8260;SDS011;64115;50.170;8.242;2023-04-08T06:28:57;23.97;;;17.27;;
8260;SDS011;64115;50.170;8.242;2023-04-08T06:31:24;24.43;;;17.50;;
8260;SDS011;64115;50.170;8.242;2023-04-08T06:33:53;24.73;;;17.70;;
8260;SDS011;64115;50.170;8.242;2023-04-08T06:36:21;26.17;;;18.50;;
8260;SDS011;64115;50.170;8.242;2023-04-08T06:38:48;24.10;;;17.77;;
8260;SDS011;64115;50.170;8.242;2023-04-08T06:41:15;27.40;;;18.50;;
8260;SDS011;64115;50.170;8.242;2023-04-08T06:43:42;25.90;;;17.00;;
8260;SDS011;64115;50.170;8.242;2023-04-08T06:46:09;24.30;;;17.97;;
8260;SDS011;64115;50.170;8.242;2023-04-08T06:48:36;26.47;;;18.27;;
8260;SDS011;64115;50.170;8.242;2023-04-08T06:51:05;26.90;;;18.70;;
8260;SDS011;64115;50.170;8.242;2023-04-08T06:53:32;25.93;;;18.47;;
8260;SDS011;64115;50.170;8.242;2023-04-08T06:55:59;27.53;;;19.00;;
8260;SDS011;64115;50.170;8.242;2023-04-08T06:58:27;27.23;;;19.13;;
8260;SDS011;64115;50.170;8.242;2023-04-08T07:00:55;26.90;;;18.93;;
8260;SDS011;64115;50.170;8.242;2023-04-08T07:03:22;25.53;;;18.30;;
8260;SDS011;64115;50.170;8.242;2023-04-08T07:05:49;27.63;;;18.03;;
8260;SDS011;64115;50.170;8.242;2023-04-08T07:08:17;25.33;;;17.40;;
8260;SDS011;64115;50.170;8.242;2023-04-08T07:10:45;25.57;;;18.43;;
8260;SDS011;64115;50.170;8.242;2023-04-08T07:13:12;26.47;;;18.23;;
8260;SDS011;64115;50.170;8.242;2023-04-08T07:15:39;25.63;;;17.50;;
8260;SDS011;64115;50.170;8.242;2023-04-08T07:18:07;23.63;;;17.47;;
8260;SDS011;64115;50.170;8.242;2023-04-08T07:20:34;22.63;;;16.67;;
8260;SDS011;64115;50.170;8.242;2023-04-08T07:23:02;24.30;;;17.17;;
8260;SDS011;64115;50.170;8.242;2023-04-08T07:25:31;22.37;;;16.60;;
8260;SDS011;64115;50.170;8.242;2023-04-08T07:27:58;17.97;;;15.30;;
8260;SDS011;64115;50.170;8.242;2023-04-08T07:30:25;22.33;;;16.20;;
8260;SDS011;64115;50.170;8.242;2023-04-08T07:32:52;23.17;;;15.93;;
8260;SDS011;64115;50.170;8.242;2023-04-08T07:35:22;19.83;;;15.67;;
8260;SDS011;64115;50.170;8.242;2023-04-08T07:37:50;20.23;;;14.77;;
8260;SDS011;64115;50.170;8.242;2023-04-08T07:40:17;23.03;;;16.93;;
8260;SDS011;64115;50.170;8.242;2023-04-08T07:42:46;19.37;;;15.27;;
8260;SDS011;64115;50.170;8.242;2023-04-08T07:45:13;22.00;;;16.60;;
8260;SDS011;64115;50.170;8.242;2023-04-08T07:47:40;20.83;;;16.07;;
8260;SDS011;64115;50.170;8.242;2023-04-08T07:50:07;20.33;;;15.47;;
8260;SDS011;64115;50.170;8.242;2023-04-08T07:52:35;21.63;;;15.97;;
8260;SDS011;64115;50.170;8.242;2023-04-08T07:55:02;20.93;;;15.30;;
8260;SDS011;64115;50.170;8.242;2023-04-08T07:57:30;20.10;;;15.47;;
8260;SDS011;64115;50.170;8.242;2023-04-08T07:59:58;19.07;;;15.03;;
8260;SDS011;64115;50.170;8.242;2023-04-08T08:02:25;19.80;;;15.27;;
8260;SDS011;64115;50.170;8.242;2023-04-08T08:04:53;17.07;;;13.93;;
8260;SDS011;64115;50.170;8.242;2023-04-08T08:07:20;18.40;;;14.57;;
8260;SDS011;64115;50.170;8.242;2023-04-08T08:09:47;18.23;;;13.77;;
8260;SDS011;64115;50.170;8.242;2023-04-08T08:12:14;16.37;;;14.23;;
8260;SDS011;64115;50.170;8.242;2023-04-08T08:14:41;17.03;;;13.57;;
8260;SDS011;64115;50.170;8.242;2023-04-08T08:17:09;15.80;;;13.57;;
8260;SDS011;64115;50.170;8.242;2023-04-08T08:19:36;15.93;;;13.80;;
8260;SDS011;64115;50.170;8.242;2023-04-08T08:22:03;16.07;;;13.20;;
8260;SDS011;64115;50.170;8.242;2023-04-08T08:24:30;16.73;;;13.90;;
8260;SDS011;64115;50.170;8.242;2023-04-08T08:26:57;16.90;;;14.20;;
8260;SDS011;64115;50.170;8.242;2023-04-08T08:29:25;17.57;;;13.63;;
8260;SDS011;64115;50.170;8.242;2023-04-08T08:31:52;15.90;;;13.77;;
8260;SDS011;64115;50.170;8.242;2023-04-08T08:34:21;17.10;;;15.00;;
8260;SDS011;64115;50.170;8.242;2023-04-08T08:36:48;17.60;;;14.27;;
8260;SDS011;64115;50.170;8.242;2023-04-08T08:39:15;16.97;;;14.67;;
8260;SDS011;64115;50.170;8.242;2023-04-08T08:41:42;18.10;;;13.63;;
8260;SDS011;64115;50.170;8.242;2023-04-08T08:44:10;18.33;;;14.37;;
8260;SDS011;64115;50.170;8.242;2023-04-08T08:46:39;17.63;;;14.87;;
8260;SDS011;64115;50.170;8.242;2023-04-08T08:49:10;17.73;;;13.90;;
8260;SDS011;64115;50.170;8.242;2023-04-08T08:51:40;16.47;;;13.53;;
8260;SDS011;64115;50.170;8.242;2023-04-08T08:54:07;14.70;;;12.80;;
8260;SDS011;64115;50.170;8.242;2023-04-08T08:56:34;16.20;;;13.67;;
8260;SDS011;64115;50.170;8.242;2023-04-08T08:59:02;14.50;;;12.97;;
8260;SDS011;64115;50.170;8.242;2023-04-08T09:01:32;15.53;;;12.83;;
8260;SDS011;64115;50.170;8.242;2023-04-08T09:04:08;15.17;;;12.90;;
8260;SDS011;64115;50.170;8.242;2023-04-08T09:06:37;14.73;;;12.60;;
8260;SDS011;64115;50.170;8.242;2023-04-08T09:09:05;15.50;;;12.70;;
8260;SDS011;64115;50.170;8.242;2023-04-08T09:11:35;14.63;;;12.43;;
8260;SDS011;64115;50.170;8.242;2023-04-08T09:14:03;14.50;;;12.87;;
8260;SDS011;64115;50.170;8.242;2023-04-08T09:16:31;14.27;;;12.30;;
8260;SDS011;64115;50.170;8.242;2023-04-08T09:19:08;14.13;;;12.40;;
8260;SDS011;64115;50.170;8.242;2023-04-08T09:21:36;13.40;;;12.03;;
8260;SDS011;64115;50.170;8.242;2023-04-08T09:24:07;12.60;;;11.40;;
8260;SDS011;64115;50.170;8.242;2023-04-08T09:26:35;14.20;;;12.47;;
8260;SDS011;64115;50.170;8.242;2023-04-08T09:29:03;14.47;;;12.60;;
8260;SDS011;64115;50.170;8.242;2023-04-08T09:31:32;12.73;;;11.43;;
8260;SDS011;64115;50.170;8.242;2023-04-08T09:34:08;12.83;;;11.53;;
8260;SDS011;64115;50.170;8.242;2023-04-08T09:36:36;12.03;;;10.80;;
8260;SDS011;64115;50.170;8.242;2023-04-08T09:39:03;13.00;;;11.50;;
8260;SDS011;64115;50.170;8.242;2023-04-08T09:41:33;15.47;;;11.93;;
8260;SDS011;64115;50.170;8.242;2023-04-08T09:44:02;13.10;;;11.70;;
8260;SDS011;64115;50.170;8.242;2023-04-08T09:46:32;13.33;;;11.57;;
8260;SDS011;64115;50.170;8.242;2023-04-08T09:49:05;14.90;;;12.40;;
8260;SDS011;64115;50.170;8.242;2023-04-08T09:51:37;12.93;;;11.63;;
8260;SDS011;64115;50.170;8.242;2023-04-08T09:54:12;13.77;;;11.70;;
8260;SDS011;64115;50.170;8.242;2023-04-08T09:56:43;13.80;;;11.93;;
8260;SDS011;64115;50.170;8.242;2023-04-08T09:59:15;12.80;;;11.40;;
8260;SDS011;64115;50.170;8.242;2023-04-08T10:01:51;12.10;;;10.77;;
8260;SDS011;64115;50.170;8.242;2023-04-08T10:04:20;12.60;;;11.30;;
8260;SDS011;64115;50.170;8.242;2023-04-08T10:06:51;12.80;;;10.93;;
8260;SDS011;64115;50.170;8.242;2023-04-08T10:09:24;11.90;;;10.73;;
8260;SDS011;64115;50.170;8.242;2023-04-08T10:11:53;12.57;;;11.00;;
8260;SDS011;64115;50.170;8.242;2023-04-08T10:14:21;11.63;;;10.53;;
8260;SDS011;64115;50.170;8.242;2023-04-08T10:16:48;12.03;;;10.83;;
8260;SDS011;64115;50.170;8.242;2023-04-08T10:27:57;10.80;;;9.70;;
8260;SDS011;64115;50.170;8.242;2023-04-08T10:33:10;10.00;;;9.00;;
8260;SDS011;64115;50.170;8.242;2023-04-08T10:35:40;9.13;;;8.30;;
8260;SDS011;64115;50.170;8.242;2023-04-08T10:38:10;11.23;;;9.77;;
8260;SDS011;64115;50.170;8.242;2023-04-08T10:40:40;10.30;;;9.30;;
8260;SDS011;64115;50.170;8.242;2023-04-08T10:43:09;10.00;;;8.63;;
8260;SDS011;64115;50.170;8.242;2023-04-08T10:45:37;10.57;;;9.30;;
8260;SDS011;64115;50.170;8.242;2023-04-08T10:48:15;8.93;;;8.13;;
8260;SDS011;64115;50.170;8.242;2023-04-08T10:50:43;9.23;;;8.40;;
8260;SDS011;64115;50.170;8.242;2023-04-08T10:53:22;9.00;;;8.20;;
8260;SDS011;64115;50.170;8.242;2023-04-08T10:55:52;9.37;;;8.47;;
8260;SDS011;64115;50.170;8.242;2023-04-08T10:58:19;9.50;;;8.50;;
8260;SDS011;64115;50.170;8.242;2023-04-08T11:00:46;9.40;;;8.47;;
8260;SDS011;64115;50.170;8.242;2023-04-08T11:03:13;9.10;;;8.00;;
8260;SDS011;64115;50.170;8.242;2023-04-08T11:05:40;9.47;;;8.57;;
8260;SDS011;64115;50.170;8.242;2023-04-08T11:08:07;8.53;;;7.77;;
8260;SDS011;64115;50.170;8.242;2023-04-08T11:10:35;9.23;;;8.33;;
8260;SDS011;64115;50.170;8.242;2023-04-08T11:13:06;8.73;;;7.93;;
8260;SDS011;64115;50.170;8.242;2023-04-08T11:15:34;9.20;;;7.63;;
8260;SDS011;64115;50.170;8.242;2023-04-08T11:18:02;8.37;;;7.57;;
8260;SDS011;64115;50.170;8.242;2023-04-08T11:20:30;9.10;;;8.07;;
8260;SDS011;64115;50.170;8.242;2023-04-08T11:23:01;8.83;;;7.60;;
8260;SDS011;64115;50.170;8.242;2023-04-08T11:25:28;9.13;;;8.07;;
8260;SDS011;64115;50.170;8.242;2023-04-08T11:27:56;8.97;;;8.03;;
8260;SDS011;64115;50.170;8.242;2023-04-08T11:30:25;9.10;;;8.27;;
8260;SDS011;64115;50.170;8.242;2023-04-08T11:32:53;7.97;;;7.27;;
8260;SDS011;64115;50.170;8.242;2023-04-08T11:35:22;8.40;;;7.70;;
8260;SDS011;64115;50.170;8.242;2023-04-08T11:37:51;8.70;;;7.80;;
8260;SDS011;64115;50.170;8.242;2023-04-08T11:40:19;8.50;;;7.80;;
8260;SDS011;64115;50.170;8.242;2023-04-08T11:42:48;9.00;;;8.10;;
8260;SDS011;64115;50.170;8.242;2023-04-08T11:45:15;9.33;;;8.43;;
8260;SDS011;64115;50.170;8.242;2023-04-08T11:47:45;8.53;;;7.73;;
8260;SDS011;64115;50.170;8.242;2023-04-08T11:50:17;9.30;;;8.47;;
8260;SDS011;64115;50.170;8.242;2023-04-08T11:52:49;9.23;;;8.40;;
8260;SDS011;64115;50.170;8.242;2023-04-08T11:55:23;8.50;;;7.80;;
8260;SDS011;64115;50.170;8.242;2023-04-08T11:57:51;8.47;;;7.67;;
8260;SDS011;64115;50.170;8.242;2023-04-08T12:00:19;8.63;;;7.80;;
8260;SDS011;64115;50.170;8.242;2023-04-08T12:02:49;8.60;;;7.80;;
8260;SDS011;64115;50.170;8.242;2023-04-08T12:05:17;8.90;;;8.00;;
8260;SDS011;64115;50.170;8.242;2023-04-08T12:07:45;8.83;;;8.03;;
8260;SDS011;64115;50.170;8.242;2023-04-08T12:10:12;8.50;;;7.53;;
8260;SDS011;64115;50.170;8.242;2023-04-08T12:12:39;8.30;;;7.60;;
8260;SDS011;64115;50.170;8.242;2023-04-08T12:15:07;8.47;;;7.67;;
8260;SDS011;64115;50.170;8.242;2023-04-08T12:17:35;7.77;;;7.10;;
8260;SDS011;64115;50.170;8.242;2023-04-08T12:20:05;8.13;;;7.47;;
8260;SDS011;64115;50.170;8.242;2023-04-08T12:22:32;7.97;;;7.27;;
8260;SDS011;64115;50.170;8.242;2023-04-08T12:24:59;8.80;;;7.90;;
8260;SDS011;64115;50.170;8.242;2023-04-08T12:27:28;9.33;;;7.87;;
8260;SDS011;64115;50.170;8.242;2023-04-08T12:29:55;8.80;;;7.30;;
8260;SDS011;64115;50.170;8.242;2023-04-08T12:32:22;7.53;;;6.93;;
8260;SDS011;64115;50.170;8.242;2023-04-08T12:34:49;8.50;;;7.70;;
8260;SDS011;64115;50.170;8.242;2023-04-08T12:37:18;9.43;;;8.53;;
8260;SDS011;64115;50.170;8.242;2023-04-08T12:39:45;7.87;;;7.07;;
8260;SDS011;64115;50.170;8.242;2023-04-08T12:42:14;8.57;;;7.30;;
8260;SDS011;64115;50.170;8.242;2023-04-08T12:44:41;8.57;;;7.50;;
8260;SDS011;64115;50.170;8.242;2023-04-08T12:47:08;8.23;;;7.20;;
8260;SDS011;64115;50.170;8.242;2023-04-08T12:49:35;8.73;;;7.93;;
8260;SDS011;64115;50.170;8.242;2023-04-08T12:52:02;8.53;;;7.83;;
8260;SDS011;64115;50.170;8.242;2023-04-08T12:54:31;8.63;;;7.90;;
8260;SDS011;64115;50.170;8.242;2023-04-08T12:56:58;7.80;;;7.17;;
8260;SDS011;64115;50.170;8.242;2023-04-08T12:59:25;7.70;;;7.00;;
8260;SDS011;64115;50.170;8.242;2023-04-08T13:01:52;8.07;;;7.37;;
8260;SDS011;64115;50.170;8.242;2023-04-08T13:04:20;7.80;;;7.10;;
8260;SDS011;64115;50.170;8.242;2023-04-08T13:06:47;7.53;;;6.83;;
8260;SDS011;64115;50.170;8.242;2023-04-08T13:09:13;7.57;;;6.90;;
8260;SDS011;64115;50.170;8.242;2023-04-08T13:11:42;7.60;;;6.90;;
8260;SDS011;64115;50.170;8.242;2023-04-08T13:14:09;6.23;;;5.73;;
8260;SDS011;64115;50.170;8.242;2023-04-08T13:16:37;6.57;;;6.07;;
8260;SDS011;64115;50.170;8.242;2023-04-08T13:19:04;6.97;;;6.33;;
8260;SDS011;64115;50.170;8.242;2023-04-08T13:21:32;6.00;;;5.50;;
8260;SDS011;64115;50.170;8.242;2023-04-08T13:23:59;6.30;;;5.80;;
8260;SDS011;64115;50.170;8.242;2023-04-08T13:26:26;7.70;;;6.23;;
8260;SDS011;64115;50.170;8.242;2023-04-08T13:28:54;6.90;;;6.30;;
8260;SDS011;64115;50.170;8.242;2023-04-08T13:31:21;7.00;;;6.40;;
8260;SDS011;64115;50.170;8.242;2023-04-08T13:33:48;7.07;;;6.37;;
8260;SDS011;64115;50.170;8.242;2023-04-08T13:36:15;7.63;;;6.77;;
8260;SDS011;64115;50.170;8.242;2023-04-08T13:38:42;7.00;;;6.40;;
8260;SDS011;64115;50.170;8.242;2023-04-08T13:41:10;6.67;;;6.07;;
8260;SDS011;64115;50.170;8.242;2023-04-08T13:43:37;6.67;;;6.07;;
8260;SDS011;64115;50.170;8.242;2023-04-08T13:46:06;7.57;;;5.83;;
8260;SDS011;64115;50.170;8.242;2023-04-08T13:48:33;6.53;;;5.93;;
8260;SDS011;64115;50.170;8.242;2023-04-08T13:51:00;6.53;;;5.87;;
8260;SDS011;64115;50.170;8.242;2023-04-08T13:53:27;6.57;;;6.07;;
8260;SDS011;64115;50.170;8.242;2023-04-08T13:55:55;6.50;;;6.00;;
8260;SDS011;64115;50.170;8.242;2023-04-08T13:58:23;6.10;;;5.60;;
8260;SDS011;64115;50.170;8.242;2023-04-08T14:00:50;6.10;;;5.60;;
8260;SDS011;64115;50.170;8.242;2023-04-08T14:03:18;5.73;;;5.20;;
8260;SDS011;64115;50.170;8.242;2023-04-08T14:05:46;5.70;;;5.30;;
8260;SDS011;64115;50.170;8.242;2023-04-08T14:08:14;5.23;;;4.83;;
8260;SDS011;64115;50.170;8.242;2023-04-08T14:10:48;5.97;;;5.47;;
8260;SDS011;64115;50.170;8.242;2023-04-08T14:13:16;5.57;;;5.07;;
8260;SDS011;64115;50.170;8.242;2023-04-08T14:15:43;5.77;;;5.27;;
8260;SDS011;64115;50.170;8.242;2023-04-08T14:18:10;6.10;;;5.57;;
8260;SDS011;64115;50.170;8.242;2023-04-08T14:20:39;6.30;;;5.70;;
8260;SDS011;64115;50.170;8.242;2023-04-08T14:23:07;6.53;;;5.93;;
8260;SDS011;64115;50.170;8.242;2023-04-08T14:25:34;7.70;;;6.70;;
8260;SDS011;64115;50.170;8.242;2023-04-08T14:28:00;7.00;;;6.40;;
8260;SDS011;64115;50.170;8.242;2023-04-08T14:30:27;7.73;;;6.97;;
8260;SDS011;64115;50.170;8.242;2023-04-08T14:32:55;7.30;;;6.60;;
8260;SDS011;64115;50.170;8.242;2023-04-08T14:35:23;8.23;;;6.77;;
8260;SDS011;64115;50.170;8.242;2023-04-08T14:37:51;6.63;;;6.07;;
8260;SDS011;64115;50.170;8.242;2023-04-08T14:40:18;7.37;;;6.67;;
8260;SDS011;64115;50.170;8.242;2023-04-08T14:42:45;7.60;;;6.90;;
8260;SDS011;64115;50.170;8.242;2023-04-08T14:45:13;7.70;;;7.00;;
8260;SDS011;64115;50.170;8.242;2023-04-08T14:47:40;6.70;;;6.10;;
8260;SDS011;64115;50.170;8.242;2023-04-08T14:50:08;6.90;;;6.20;;
8260;SDS011;64115;50.170;8.242;2023-04-08T14:52:35;6.83;;;6.30;;
8260;SDS011;64115;50.170;8.242;2023-04-08T14:55:04;6.47;;;5.90;;
8260;SDS011;64115;50.170;8.242;2023-04-08T14:57:32;7.17;;;5.73;;
8260;SDS011;64115;50.170;8.242;2023-04-08T14:59:59;6.47;;;5.97;;